createdAt,value
2022-11-14T00:00:42.994Z,6.15
2022-11-14T00:01:44.938Z,6.19
2022-11-14T00:02:46.882Z,6.22
2022-11-14T00:03:49.741Z,6.24
2022-11-14T00:04:51.615Z,6.27
2022-11-14T00:05:53.511Z,6.17
2022-11-14T00:06:56.026Z,6.24
2022-11-14T00:07:59.094Z,6.12
2022-11-14T00:09:01.023Z,6.13
2022-11-14T00:10:04.006Z,6.01
2022-11-14T00:11:05.918Z,5.98
2022-11-14T00:12:09.179Z,6.05
2022-11-14T00:13:11.169Z,6.05
2022-11-14T00:14:13.305Z,6.07
2022-11-14T00:15:20.411Z,5.97
2022-11-14T00:16:22.553Z,5.99
2022-11-14T00:17:24.860Z,6.06
2022-11-14T00:18:27.060Z,6.06
2022-11-14T00:19:29.484Z,6.08
2022-11-14T00:20:31.856Z,6.05
2022-11-14T00:21:33.743Z,5.98
2022-11-14T00:22:36.067Z,6.00
2022-11-14T00:23:37.943Z,6.06
2022-11-14T00:24:39.835Z,6.05
2022-11-14T00:25:43.803Z,5.98
2022-11-14T00:26:46.019Z,6.01
2022-11-14T00:27:47.896Z,6.07
2022-11-14T00:28:50.177Z,5.86
2022-11-14T00:29:52.252Z,5.97
2022-11-14T00:30:54.224Z,5.98
2022-11-14T00:31:56.078Z,6.00
2022-11-14T00:32:57.960Z,6.08
2022-11-14T00:33:59.845Z,6.09
2022-11-14T00:35:01.707Z,6.01
2022-11-14T00:36:04.710Z,6.07
2022-11-14T00:37:07.645Z,6.10
2022-11-14T00:38:09.559Z,6.09
2022-11-14T00:39:13.496Z,5.99
2022-11-14T00:40:19.710Z,5.97
2022-11-14T00:41:21.819Z,5.91
2022-11-14T00:42:23.713Z,5.78
2022-11-14T00:43:25.581Z,5.86
2022-11-14T00:44:27.444Z,5.89
2022-11-14T00:45:29.816Z,5.77
2022-11-14T00:46:31.875Z,5.77
2022-11-14T00:47:34.233Z,5.70
2022-11-14T00:48:36.088Z,5.62
2022-11-14T00:49:38.216Z,5.71
2022-11-14T00:50:40.791Z,5.66
2022-11-14T00:51:42.691Z,5.54
2022-11-14T00:52:44.605Z,5.58
2022-11-14T00:53:46.477Z,5.68
2022-11-14T00:54:48.427Z,5.60
2022-11-14T00:55:50.313Z,5.69
2022-11-14T00:56:52.411Z,5.73
2022-11-14T00:57:54.270Z,5.72
2022-11-14T00:58:56.172Z,5.67
2022-11-14T00:59:58.075Z,5.63
2022-11-14T01:01:01.312Z,5.50
2022-11-14T01:02:03.447Z,5.52
2022-11-14T01:03:05.970Z,5.53
2022-11-14T01:04:07.930Z,5.56
2022-11-14T01:05:10.062Z,5.56
2022-11-14T01:06:12.543Z,5.63
2022-11-14T01:07:14.424Z,5.61
2022-11-14T01:08:19.432Z,5.52
2022-11-14T01:09:22.641Z,5.50
2022-11-14T01:10:25.077Z,5.40
2022-11-14T01:11:27.430Z,5.44
2022-11-14T01:12:29.313Z,5.50
2022-11-14T01:13:31.977Z,5.50
2022-11-14T01:14:33.842Z,5.47
2022-11-14T01:15:47.436Z,5.47
2022-11-14T01:16:50.208Z,5.42
2022-11-14T01:17:52.148Z,5.37
2022-11-14T01:18:55.237Z,5.28
2022-11-14T01:19:57.154Z,5.29
2022-11-14T01:21:08.191Z,5.31
2022-11-14T01:22:10.106Z,5.41
2022-11-14T01:23:14.714Z,5.43
2022-11-14T01:24:18.405Z,5.37
2022-11-14T01:25:20.324Z,5.39
2022-11-14T01:26:22.287Z,5.34
2022-11-14T01:27:25.111Z,5.24
2022-11-14T01:28:27.254Z,5.25
2022-11-14T01:29:30.249Z,5.25
2022-11-14T01:30:32.234Z,5.25
2022-11-14T01:31:34.413Z,5.21
2022-11-14T01:32:36.699Z,5.21
2022-11-14T01:33:39.367Z,5.12
2022-11-14T01:34:41.261Z,5.04
2022-11-14T01:35:43.124Z,5.18
2022-11-14T01:36:45.430Z,4.92
2022-11-14T01:37:47.382Z,5.04
2022-11-14T01:38:53.582Z,5.02
2022-11-14T01:39:55.696Z,4.98
2022-11-14T01:40:58.329Z,5.03
2022-11-14T01:42:00.208Z,5.03
2022-11-14T01:43:12.371Z,5.02
2022-11-14T01:45:51.431Z,5.15
2022-11-14T01:46:57.083Z,5.09
2022-11-14T01:47:59.013Z,5.04
2022-11-14T01:49:08.546Z,5.03
2022-11-14T01:50:12.713Z,4.96
2022-11-14T01:52:42.535Z,5.04
2022-11-14T01:53:47.240Z,4.94
2022-11-14T01:54:54.803Z,4.91
2022-11-14T01:56:00.659Z,4.93
2022-11-14T01:57:05.702Z,4.90
2022-11-14T01:58:07.636Z,4.89
2022-11-14T01:59:13.252Z,4.86
2022-11-14T02:00:15.815Z,4.86
2022-11-14T02:01:18.079Z,4.83
2022-11-14T02:02:22.959Z,4.81
2022-11-14T02:03:25.468Z,4.85
2022-11-14T02:04:30.340Z,4.92
2022-11-14T02:05:33.094Z,4.83
2022-11-14T02:06:36.206Z,4.84
2022-11-14T02:07:40.399Z,4.78
2022-11-14T02:08:44.014Z,4.78
2022-11-14T02:09:48.245Z,4.78
2022-11-14T02:10:50.247Z,4.66
2022-11-14T02:11:55.937Z,4.71
2022-11-14T02:12:57.838Z,4.69
2022-11-14T02:14:00.595Z,4.67
2022-11-14T02:15:03.751Z,4.67
2022-11-14T02:16:06.611Z,4.64
2022-11-14T02:18:12.801Z,4.67
2022-11-14T02:19:15.212Z,4.67
2022-11-14T02:20:30.436Z,4.63
2022-11-14T02:21:32.353Z,4.62
2022-11-14T02:22:34.654Z,4.61
2022-11-14T02:23:36.642Z,4.59
2022-11-14T02:24:38.491Z,4.58
2022-11-14T02:25:40.691Z,4.59
2022-11-14T02:26:43.386Z,4.50
2022-11-14T02:27:45.591Z,4.56
2022-11-14T02:28:49.286Z,4.52
2022-11-14T02:29:51.361Z,4.61
2022-11-14T02:30:55.122Z,4.57
2022-11-14T02:31:59.343Z,4.53
2022-11-14T02:33:10.936Z,4.50
2022-11-14T02:34:05.894Z,4.43
2022-11-14T02:35:08.471Z,4.30
2022-11-14T02:36:11.201Z,4.40
2022-11-14T02:37:13.058Z,4.42
2022-11-14T02:38:14.926Z,4.51
2022-11-14T02:39:16.785Z,4.38
2022-11-14T02:40:19.012Z,4.49
2022-11-14T02:41:21.343Z,4.48
2022-11-14T02:42:24.709Z,4.29
2022-11-14T02:43:26.605Z,4.32
2022-11-14T02:44:28.495Z,4.35
2022-11-14T02:45:30.370Z,4.30
2022-11-14T02:46:32.638Z,4.37
2022-11-14T02:47:34.500Z,4.45
2022-11-14T02:48:36.471Z,4.54
2022-11-14T02:49:38.320Z,4.39
2022-11-14T02:50:40.312Z,4.37
2022-11-14T02:51:42.216Z,4.34
2022-11-14T02:52:44.107Z,4.36
2022-11-14T02:53:46.205Z,4.37
2022-11-14T02:54:51.708Z,4.45
2022-11-14T02:55:51.921Z,4.52
2022-11-14T02:56:54.077Z,4.40
2022-11-14T02:57:55.938Z,4.40
2022-11-14T02:58:59.414Z,4.33
2022-11-14T03:00:01.430Z,4.35
2022-11-14T03:01:20.374Z,4.30
2022-11-14T03:02:07.544Z,4.33
2022-11-14T03:03:09.477Z,4.30
2022-11-14T03:04:11.425Z,4.32
2022-11-14T03:05:13.483Z,4.22
2022-11-14T03:06:15.646Z,4.25
2022-11-14T03:07:17.557Z,4.12
2022-11-14T03:08:19.696Z,4.19
2022-11-14T03:09:21.544Z,4.16
2022-11-14T03:10:24.185Z,4.10
2022-11-14T03:11:26.055Z,4.09
2022-11-14T03:12:27.987Z,4.04
2022-11-14T03:13:30.063Z,4.08
2022-11-14T03:14:31.953Z,4.05
2022-11-14T03:15:38.251Z,4.00
2022-11-14T03:16:40.303Z,4.00
2022-11-14T03:17:42.239Z,3.94
2022-11-14T03:18:44.111Z,3.81
2022-11-14T03:19:45.964Z,3.83
2022-11-14T03:20:48.528Z,3.71
2022-11-14T03:21:50.421Z,3.65
2022-11-14T03:22:52.309Z,3.69
2022-11-14T03:23:54.161Z,3.61
2022-11-14T03:24:56.007Z,3.76
2022-11-14T03:26:02.012Z,3.69
2022-11-14T03:27:04.055Z,3.37
2022-11-14T03:28:06.021Z,3.71
2022-11-14T03:29:08.229Z,3.82
2022-11-14T03:30:11.517Z,3.73
2022-11-14T03:31:14.209Z,3.76
2022-11-14T03:32:16.128Z,3.81
2022-11-14T03:33:17.979Z,3.82
2022-11-14T03:34:19.828Z,3.84
2022-11-14T03:35:21.781Z,3.91
2022-11-14T03:36:23.773Z,3.84
2022-11-14T03:37:25.632Z,3.73
2022-11-14T03:38:27.937Z,3.52
2022-11-14T03:39:30.401Z,3.55
2022-11-14T03:40:32.563Z,3.64
2022-11-14T03:41:34.421Z,3.65
2022-11-14T03:42:36.289Z,3.76
2022-11-14T03:43:38.170Z,3.75
2022-11-14T03:44:40.027Z,3.79
2022-11-14T03:45:42.084Z,3.71
2022-11-14T03:46:44.608Z,3.78
2022-11-14T03:47:46.484Z,3.75
2022-11-14T03:48:48.460Z,3.82
2022-11-14T03:49:50.455Z,3.73
2022-11-14T03:50:52.431Z,3.68
2022-11-14T03:51:54.313Z,3.62
2022-11-14T03:52:56.333Z,3.55
2022-11-14T03:53:58.379Z,3.61
2022-11-14T03:55:00.369Z,3.62
2022-11-14T03:56:03.081Z,3.65
2022-11-14T03:57:04.971Z,3.62
2022-11-14T03:58:06.886Z,3.58
2022-11-14T03:59:09.751Z,3.58
2022-11-14T04:00:13.882Z,3.58
2022-11-14T04:01:15.978Z,3.56
2022-11-14T04:02:18.006Z,3.55
2022-11-14T04:03:19.892Z,3.57
2022-11-14T04:04:22.503Z,3.54
2022-11-14T04:05:24.471Z,3.56
2022-11-14T04:06:26.824Z,3.52
2022-11-14T04:07:28.738Z,3.46
2022-11-14T04:08:32.133Z,3.51
2022-11-14T04:09:34.419Z,3.55
2022-11-14T04:10:36.432Z,3.52
2022-11-14T04:11:38.437Z,3.53
2022-11-14T04:12:40.305Z,3.56
2022-11-14T04:13:42.179Z,3.57
2022-11-14T04:14:45.382Z,3.59
2022-11-14T04:15:55.629Z,3.57
2022-11-14T04:16:57.650Z,3.54
2022-11-14T04:18:00.044Z,3.54
2022-11-14T04:19:01.966Z,3.56
2022-11-14T04:20:04.921Z,3.59
2022-11-14T04:21:07.012Z,3.61
2022-11-14T04:22:08.906Z,3.65
2022-11-14T04:23:10.826Z,3.62
2022-11-14T04:24:12.679Z,3.59
2022-11-14T04:25:14.589Z,3.63
2022-11-14T04:26:17.438Z,3.57
2022-11-14T04:27:19.315Z,3.50
2022-11-14T04:28:21.209Z,3.49
2022-11-14T04:29:23.406Z,3.48
2022-11-14T04:30:25.402Z,3.51
2022-11-14T04:31:27.271Z,3.52
2022-11-14T04:32:29.445Z,3.53
2022-11-14T04:33:31.434Z,3.63
2022-11-14T04:34:33.321Z,3.61
2022-11-14T04:35:35.223Z,3.63
2022-11-14T04:36:37.205Z,3.67
2022-11-14T04:37:39.081Z,3.68
2022-11-14T04:38:40.937Z,3.64
2022-11-14T04:39:42.827Z,3.65
2022-11-14T04:40:51.209Z,3.71
2022-11-14T04:41:53.130Z,3.74
2022-11-14T04:42:55.010Z,3.65
2022-11-14T04:43:56.901Z,3.62
2022-11-14T04:44:58.801Z,3.60
2022-11-14T04:46:00.964Z,3.54
2022-11-14T04:47:03.163Z,3.56
2022-11-14T04:48:06.293Z,3.54
2022-11-14T04:49:08.793Z,3.69
2022-11-14T04:50:13.211Z,3.61
2022-11-14T04:51:16.134Z,3.62
2022-11-14T04:52:21.622Z,3.65
2022-11-14T04:53:24.926Z,3.68
2022-11-14T04:54:28.242Z,3.57
2022-11-14T04:55:30.143Z,3.61
2022-11-14T04:56:32.382Z,3.53
2022-11-14T04:57:36.428Z,3.53
2022-11-14T04:58:45.851Z,3.57
2022-11-14T04:59:47.783Z,3.53
2022-11-14T05:00:52.182Z,3.46
2022-11-14T05:01:54.774Z,3.55
2022-11-14T05:02:59.875Z,3.44
2022-11-14T05:04:02.785Z,3.52
2022-11-14T05:05:06.206Z,3.46
2022-11-14T05:06:09.825Z,3.55
2022-11-14T05:07:15.151Z,3.53
2022-11-14T05:08:17.184Z,3.55
2022-11-14T05:09:21.466Z,3.55
2022-11-14T05:10:25.389Z,3.53
2022-11-14T05:11:29.536Z,3.55
2022-11-14T05:12:35.283Z,3.50
2022-11-14T05:13:38.101Z,3.46
2022-11-14T05:14:40.108Z,3.46
2022-11-14T05:15:45.897Z,3.51
2022-11-14T05:16:47.928Z,3.49
2022-11-14T05:17:49.816Z,3.46
2022-11-14T05:18:53.898Z,3.40
2022-11-14T05:19:56.017Z,3.39
2022-11-14T05:21:02.233Z,3.37
2022-11-14T05:22:04.669Z,3.39
2022-11-14T05:23:06.986Z,3.39
2022-11-14T05:24:08.907Z,3.31
2022-11-14T05:25:10.757Z,3.36
2022-11-14T05:26:15.630Z,3.46
2022-11-14T05:27:17.559Z,3.44
2022-11-14T05:28:19.416Z,3.44
2022-11-14T05:29:21.330Z,3.34
2022-11-14T05:30:23.401Z,3.37
2022-11-14T05:31:25.274Z,3.37
2022-11-14T05:32:27.167Z,3.09
2022-11-14T05:33:30.783Z,3.23
2022-11-14T05:34:32.685Z,2.98
2022-11-14T05:35:35.301Z,3.17
2022-11-14T05:36:39.560Z,3.24
2022-11-14T05:37:44.900Z,3.34
2022-11-14T05:38:47.104Z,3.32
2022-11-14T05:39:49.672Z,3.31
2022-11-14T05:40:51.645Z,3.30
2022-11-14T05:41:53.515Z,3.34
2022-11-14T05:42:56.753Z,3.30
2022-11-14T05:43:58.796Z,3.32
2022-11-14T05:45:00.786Z,3.35
2022-11-14T05:46:06.139Z,3.36
2022-11-14T05:47:08.080Z,3.28
2022-11-14T05:48:10.321Z,3.13
2022-11-14T05:49:12.348Z,3.06
2022-11-14T05:50:14.703Z,3.12
2022-11-14T05:51:16.581Z,3.09
2022-11-14T05:52:18.563Z,3.15
2022-11-14T05:53:20.441Z,3.22
2022-11-14T05:54:22.363Z,3.23
2022-11-14T05:55:25.293Z,3.31
2022-11-14T05:56:27.478Z,3.32
2022-11-14T05:57:30.076Z,3.27
2022-11-14T05:58:34.135Z,3.31
2022-11-14T05:59:36.039Z,3.28
2022-11-14T06:00:44.272Z,3.27
2022-11-14T06:01:42.002Z,3.23
2022-11-14T06:02:44.631Z,3.27
2022-11-14T06:03:47.751Z,3.30
2022-11-14T06:04:49.634Z,3.37
2022-11-14T06:05:51.493Z,3.48
2022-11-14T06:06:53.542Z,3.52
2022-11-14T06:07:57.524Z,3.55
2022-11-14T06:08:59.444Z,3.56
2022-11-14T06:10:05.971Z,3.58
2022-11-14T06:11:10.972Z,3.62
2022-11-14T06:12:12.883Z,3.62
2022-11-14T06:13:14.737Z,3.69
2022-11-14T06:14:16.685Z,3.73
2022-11-14T06:15:18.668Z,3.82
2022-11-14T06:16:22.021Z,3.84
2022-11-14T06:17:24.529Z,3.89
2022-11-14T06:18:27.545Z,3.99
2022-11-14T06:19:29.686Z,3.99
2022-11-14T06:20:31.873Z,3.96
2022-11-14T06:21:33.907Z,3.98
2022-11-14T06:22:35.780Z,4.18
2022-11-14T06:23:42.989Z,4.35
2022-11-14T06:24:46.305Z,4.38
2022-11-14T06:25:48.718Z,4.46
2022-11-14T06:26:50.924Z,4.60
2022-11-14T06:27:52.806Z,4.77
2022-11-14T06:28:54.907Z,4.82
2022-11-14T06:29:57.375Z,4.81
2022-11-14T06:31:02.513Z,4.78
2022-11-14T06:32:05.510Z,4.89
2022-11-14T06:33:07.585Z,4.91
2022-11-14T06:34:11.010Z,4.62
2022-11-14T06:35:13.314Z,4.80
2022-11-14T06:36:15.816Z,4.73
2022-11-14T06:37:17.711Z,4.78
2022-11-14T06:38:20.684Z,4.67
2022-11-14T06:39:22.580Z,4.96
2022-11-14T06:40:24.570Z,5.08
2022-11-14T06:41:26.456Z,5.27
2022-11-14T06:42:28.331Z,5.26
2022-11-14T06:43:32.935Z,5.05
2022-11-14T06:44:34.885Z,5.24
2022-11-14T06:45:36.752Z,5.23
2022-11-14T06:46:39.585Z,4.60
2022-11-14T06:47:41.521Z,5.09
2022-11-14T06:48:45.474Z,5.02
2022-11-14T06:49:47.404Z,4.94
2022-11-14T06:50:55.454Z,5.01
2022-11-14T06:51:57.346Z,5.08
2022-11-14T06:52:59.301Z,5.00
2022-11-14T06:54:01.201Z,5.02
2022-11-14T06:55:03.656Z,4.89
2022-11-14T06:56:10.129Z,4.97
2022-11-14T06:57:13.369Z,5.03
2022-11-14T06:58:16.384Z,4.78
2022-11-14T06:59:18.887Z,4.74
2022-11-14T07:00:21.604Z,4.97
2022-11-14T07:01:25.042Z,4.95
2022-11-14T07:02:27.105Z,4.84
2022-11-14T07:03:29.007Z,4.91
2022-11-14T07:04:30.967Z,5.00
2022-11-14T07:05:32.863Z,4.79
2022-11-14T07:06:34.839Z,5.11
2022-11-14T07:07:36.899Z,5.09
2022-11-14T07:08:38.819Z,5.23
2022-11-14T07:09:40.681Z,5.33
2022-11-14T07:10:43.796Z,5.35
2022-11-14T07:11:46.178Z,5.41
2022-11-14T07:12:48.076Z,5.39
2022-11-14T07:13:51.496Z,5.56
2022-11-14T07:14:53.798Z,5.48
2022-11-14T07:15:59.384Z,5.51
2022-11-14T07:17:03.247Z,5.40
2022-11-14T07:18:05.181Z,5.72
2022-11-14T07:19:07.783Z,5.73
2022-11-14T07:20:11.050Z,5.87
2022-11-14T07:21:12.936Z,5.69
2022-11-14T07:22:14.944Z,5.77
2022-11-14T07:23:22.554Z,5.94
2022-11-14T07:24:20.736Z,5.75
2022-11-14T07:25:22.623Z,6.07
2022-11-14T07:26:24.576Z,6.00
2022-11-14T07:27:27.475Z,5.74
2022-11-14T07:28:30.280Z,5.67
2022-11-14T07:29:32.581Z,5.82
2022-11-14T07:30:34.660Z,5.97
2022-11-14T07:31:36.626Z,6.10
2022-11-14T07:32:38.491Z,5.88
2022-11-14T07:33:41.330Z,5.73
2022-11-14T07:34:43.201Z,5.67
2022-11-14T07:35:45.499Z,5.97
2022-11-14T07:36:47.493Z,5.98
2022-11-14T07:37:50.250Z,5.69
2022-11-14T07:38:52.760Z,5.58
2022-11-14T07:39:54.617Z,5.70
2022-11-14T07:41:00.247Z,5.71
2022-11-14T07:42:02.351Z,5.58
2022-11-14T07:43:04.406Z,5.55
2022-11-14T07:44:06.567Z,5.67
2022-11-14T07:45:10.187Z,5.88
2022-11-14T07:46:15.103Z,6.19
2022-11-14T07:47:17.002Z,5.98
2022-11-14T07:48:19.313Z,5.76
2022-11-14T07:49:21.285Z,6.06
2022-11-14T07:50:26.305Z,5.90
2022-11-14T07:51:28.206Z,5.97
2022-11-14T07:52:30.070Z,5.88
2022-11-14T07:53:32.839Z,5.78
2022-11-14T07:54:35.827Z,5.90
2022-11-14T07:55:39.162Z,5.87
2022-11-14T07:56:42.316Z,5.84
2022-11-14T07:57:49.168Z,5.94
2022-11-14T07:58:50.432Z,6.08
2022-11-14T07:59:52.295Z,5.65
2022-11-14T08:00:54.436Z,5.94
2022-11-14T08:01:56.449Z,5.81
2022-11-14T08:02:58.325Z,5.46
2022-11-14T08:04:00.220Z,5.81
2022-11-14T08:05:02.531Z,5.79
2022-11-14T08:06:09.682Z,5.71
2022-11-14T08:07:11.857Z,5.96
2022-11-14T08:08:15.077Z,5.93
2022-11-14T08:09:17.271Z,6.03
2022-11-14T08:10:20.339Z,6.06
2022-11-14T08:11:34.556Z,6.29
2022-11-14T08:12:26.048Z,6.37
2022-11-14T08:13:32.579Z,6.45
2022-11-14T08:14:34.383Z,6.28
2022-11-14T08:15:36.395Z,6.38
2022-11-14T08:16:38.872Z,6.47
2022-11-14T08:17:40.967Z,6.50
2022-11-14T08:18:42.833Z,6.62
2022-11-14T08:19:44.705Z,6.72
2022-11-14T08:20:48.674Z,6.66
2022-11-14T08:21:50.667Z,6.59
2022-11-14T08:22:56.278Z,6.02
2022-11-14T08:23:59.216Z,5.88
2022-11-14T08:25:01.906Z,6.09
2022-11-14T08:26:04.174Z,6.14
2022-11-14T08:27:06.027Z,6.02
2022-11-14T08:28:08.282Z,6.27
2022-11-14T08:29:10.701Z,6.44
2022-11-14T08:30:13.717Z,6.24
2022-11-14T08:31:15.600Z,6.24
2022-11-14T08:32:18.531Z,6.45
2022-11-14T08:33:20.572Z,6.15
2022-11-14T08:34:22.429Z,6.31
2022-11-14T08:35:24.523Z,6.24
2022-11-14T08:36:26.509Z,6.09
2022-11-14T08:37:28.879Z,6.15
2022-11-14T08:38:32.418Z,6.37
2022-11-14T08:39:35.564Z,6.59
2022-11-14T08:40:38.088Z,6.50
2022-11-14T08:41:39.958Z,6.52
2022-11-14T08:42:41.960Z,6.58
2022-11-14T08:43:44.354Z,6.41
2022-11-14T08:44:51.719Z,6.51
2022-11-14T08:45:51.669Z,6.73
2022-11-14T08:46:53.775Z,6.85
2022-11-14T08:47:56.889Z,6.50
2022-11-14T08:48:59.104Z,6.38
2022-11-14T08:50:01.181Z,6.69
2022-11-14T08:51:06.767Z,6.88
2022-11-14T08:52:15.318Z,7.02
2022-11-14T08:53:14.351Z,7.08
2022-11-14T08:54:16.833Z,7.14
2022-11-14T08:55:20.869Z,7.07
2022-11-14T08:56:23.221Z,7.14
2022-11-14T08:57:25.099Z,7.23
2022-11-14T08:58:29.272Z,6.82
2022-11-14T08:59:32.671Z,7.03
2022-11-14T09:00:35.958Z,6.83
2022-11-14T09:01:38.578Z,6.92
2022-11-14T09:02:40.498Z,6.87
2022-11-14T09:03:42.464Z,6.96
2022-11-14T09:04:44.909Z,6.73
2022-11-14T09:05:52.439Z,6.70
2022-11-14T09:06:54.989Z,6.85
2022-11-14T09:07:59.895Z,6.89
2022-11-14T09:09:02.063Z,6.89
2022-11-14T09:10:05.840Z,7.07
2022-11-14T09:11:10.076Z,7.17
2022-11-14T09:12:11.876Z,7.15
2022-11-14T09:13:13.788Z,7.05
2022-11-14T09:14:15.950Z,7.16
2022-11-14T09:15:18.026Z,7.15
2022-11-14T09:16:20.003Z,7.15
2022-11-14T09:17:21.887Z,6.93
2022-11-14T09:18:24.772Z,6.89
2022-11-14T09:19:26.664Z,6.99
2022-11-14T09:20:34.048Z,7.00
2022-11-14T09:21:33.497Z,6.95
2022-11-14T09:22:35.474Z,6.97
2022-11-14T09:23:37.396Z,7.04
2022-11-14T09:24:40.610Z,7.10
2022-11-14T09:25:42.932Z,7.19
2022-11-14T09:26:45.961Z,7.03
2022-11-14T09:27:48.001Z,6.90
2022-11-14T09:28:50.095Z,7.16
2022-11-14T09:29:52.093Z,7.22
2022-11-14T09:30:59.895Z,7.32
2022-11-14T09:32:01.948Z,7.40
2022-11-14T09:33:11.110Z,7.40
2022-11-14T09:34:09.830Z,7.43
2022-11-14T09:35:11.785Z,7.43
2022-11-14T09:36:14.241Z,7.45
2022-11-14T09:37:16.152Z,7.45
2022-11-14T09:38:18.432Z,7.60
2022-11-14T09:39:20.404Z,7.66
2022-11-14T09:40:22.571Z,7.70
2022-11-14T09:41:37.899Z,7.68
2022-11-14T09:43:02.963Z,7.73
2022-11-14T09:44:23.914Z,7.60
2022-11-14T09:45:27.655Z,7.60
2022-11-14T09:46:39.025Z,7.58
2022-11-14T09:47:44.685Z,7.47
2022-11-14T09:48:47.628Z,7.78
2022-11-14T09:49:53.268Z,7.78
2022-11-14T09:51:08.275Z,7.85
2022-11-14T09:52:30.843Z,7.93
2022-11-14T09:53:39.387Z,7.93
2022-11-14T09:54:48.230Z,7.88
2022-11-14T09:55:51.361Z,7.56
2022-11-14T09:56:54.952Z,7.56
2022-11-14T09:57:57.744Z,7.60
2022-11-14T09:59:00.752Z,7.39
2022-11-14T10:00:17.985Z,7.62
2022-11-14T10:01:45.139Z,7.69
2022-11-14T10:03:11.065Z,7.68
2022-11-14T10:04:37.099Z,7.68
2022-11-14T10:05:56.026Z,7.54
2022-11-14T10:07:07.697Z,7.54
2022-11-14T10:08:17.841Z,7.37
2022-11-14T10:11:10.264Z,7.42
2022-11-14T10:12:23.226Z,7.33
2022-11-14T10:13:32.618Z,7.42
2022-11-14T10:14:48.001Z,7.42
2022-11-14T10:15:59.572Z,7.56
2022-11-14T10:17:34.296Z,7.33
2022-11-14T10:18:45.521Z,7.41
2022-11-14T10:19:51.216Z,7.56
2022-11-14T10:20:56.397Z,7.69
2022-11-14T10:22:19.038Z,7.78
2022-11-14T10:23:46.274Z,7.38
2022-11-14T10:25:12.355Z,7.61
2022-11-14T10:26:28.831Z,7.61
2022-11-14T10:27:34.822Z,7.48
2022-11-14T10:28:55.472Z,7.48
2022-11-14T10:30:13.305Z,7.63
2022-11-14T10:31:28.614Z,7.71
2022-11-14T10:32:34.297Z,7.68
2022-11-14T10:34:15.253Z,7.66
2022-11-14T10:37:00.204Z,7.86
2022-11-14T10:39:43.248Z,8.02
2022-11-14T10:40:49.102Z,8.03
2022-11-14T10:41:58.795Z,8.06
2022-11-14T10:43:06.260Z,8.06
2022-11-14T10:44:12.044Z,8.12
2022-11-14T10:45:36.409Z,8.23
2022-11-14T10:46:51.364Z,8.24
2022-11-14T10:49:19.978Z,7.94
2022-11-14T10:50:46.955Z,7.96
2022-11-14T10:51:55.238Z,8.10
2022-11-14T10:53:00.849Z,7.76
2022-11-14T10:54:15.106Z,7.76
2022-11-14T10:55:32.027Z,7.52
2022-11-14T10:56:26.212Z,7.76
2022-11-14T10:57:29.153Z,7.88
2022-11-14T10:58:46.802Z,7.76
2022-11-14T10:59:36.047Z,7.91
2022-11-14T11:00:38.121Z,7.90
2022-11-14T11:01:56.078Z,7.98
2022-11-14T11:02:58.108Z,8.08
2022-11-14T11:04:29.238Z,8.14
2022-11-14T11:05:31.620Z,8.14
2022-11-14T11:06:33.714Z,8.17
2022-11-14T11:07:40.433Z,8.07
2022-11-14T11:08:44.432Z,8.13
2022-11-14T11:09:51.145Z,8.16
2022-11-14T11:10:57.646Z,8.16
2022-11-14T11:12:01.962Z,8.18
2022-11-14T11:13:05.040Z,8.24
2022-11-14T11:14:16.855Z,8.31
2022-11-14T11:15:26.810Z,8.31
2022-11-14T11:16:30.062Z,8.21
2022-11-14T11:17:37.337Z,8.13
2022-11-14T11:18:37.108Z,8.21
2022-11-14T11:19:39.314Z,8.15
2022-11-14T11:20:42.298Z,8.19
2022-11-14T11:21:50.184Z,8.18
2022-11-14T11:23:10.654Z,8.15
2022-11-14T11:24:16.499Z,8.12
2022-11-14T11:25:24.649Z,8.08
2022-11-14T11:26:29.820Z,8.05
2022-11-14T11:27:32.220Z,7.93
2022-11-14T11:28:36.350Z,7.94
2022-11-14T11:29:38.331Z,7.91
2022-11-14T11:30:55.437Z,7.85
2022-11-14T11:31:59.074Z,7.86
2022-11-14T11:33:21.052Z,7.86
2022-11-14T11:34:32.183Z,7.83
2022-11-14T11:35:35.911Z,7.86
2022-11-14T11:36:44.625Z,7.90
2022-11-14T11:37:56.116Z,7.89
2022-11-14T11:39:00.187Z,7.86
2022-11-14T11:40:06.217Z,7.92
2022-11-14T11:43:31.684Z,8.06
2022-11-14T11:43:57.239Z,7.88
2022-11-14T11:45:03.529Z,7.94
2022-11-14T11:46:15.971Z,7.97
2022-11-14T11:47:19.255Z,7.99
2022-11-14T11:48:24.540Z,7.95
2022-11-14T11:49:36.955Z,8.02
2022-11-14T11:50:40.721Z,8.06
2022-11-14T11:51:45.267Z,8.00
2022-11-14T11:53:07.813Z,8.10
2022-11-14T11:54:19.366Z,8.07
2022-11-14T11:55:31.329Z,8.08
2022-11-14T11:56:35.359Z,7.97
2022-11-14T11:57:44.208Z,7.94
2022-11-14T11:58:52.142Z,8.03
2022-11-14T12:00:07.423Z,7.95
2022-11-14T12:01:11.506Z,8.01
2022-11-14T12:02:27.838Z,7.97
2022-11-14T12:03:30.113Z,7.94
2022-11-14T12:04:32.152Z,7.88
2022-11-14T12:05:43.837Z,7.93
2022-11-14T12:06:55.823Z,7.89
2022-11-14T12:08:05.274Z,7.92
2022-11-14T12:09:19.781Z,7.97
2022-11-14T12:10:29.128Z,8.02
2022-11-14T12:11:37.549Z,8.03
2022-11-14T12:12:46.977Z,8.07
2022-11-14T12:13:57.972Z,8.00
2022-11-14T12:15:16.359Z,8.02
2022-11-14T12:16:30.843Z,7.90
2022-11-14T12:18:55.658Z,8.00
2022-11-14T12:20:07.519Z,7.92
2022-11-14T12:21:19.245Z,7.96
2022-11-14T12:22:30.398Z,7.97
2022-11-14T12:23:54.592Z,7.99
2022-11-14T12:25:03.498Z,7.98
2022-11-14T12:26:21.565Z,8.05
2022-11-14T12:27:36.114Z,8.05
2022-11-14T12:28:58.865Z,8.03
2022-11-14T12:30:19.369Z,7.95
2022-11-14T12:31:23.913Z,8.03
2022-11-14T12:32:33.227Z,7.94
2022-11-14T12:33:39.340Z,7.83
2022-11-14T12:34:44.244Z,7.88
2022-11-14T12:37:11.915Z,8.00
2022-11-14T12:38:18.170Z,7.88
2022-11-14T12:39:30.512Z,7.90
2022-11-14T12:40:41.726Z,7.85
2022-11-14T12:41:43.676Z,7.84
2022-11-14T12:42:47.936Z,7.80
2022-11-14T12:43:50.454Z,7.80
2022-11-14T12:44:52.519Z,7.68
2022-11-14T12:45:59.611Z,7.73
2022-11-14T12:47:08.445Z,7.66
2022-11-14T12:48:26.566Z,7.73
2022-11-14T12:49:53.350Z,7.72
2022-11-14T12:50:57.611Z,7.69
2022-11-14T12:51:59.850Z,7.68
2022-11-14T12:53:03.014Z,7.77
2022-11-14T12:54:08.816Z,7.77
2022-11-14T12:56:37.204Z,8.01
2022-11-14T12:57:46.015Z,7.93
2022-11-14T12:59:12.898Z,8.02
2022-11-14T13:00:17.505Z,7.91
2022-11-14T13:01:26.337Z,7.80
2022-11-14T13:02:41.186Z,7.77
2022-11-14T13:03:56.295Z,7.81
2022-11-14T13:05:36.585Z,7.81
2022-11-14T13:06:42.579Z,7.60
2022-11-14T13:08:00.972Z,7.44
2022-11-14T13:10:46.956Z,7.39
2022-11-14T13:11:49.577Z,7.34
2022-11-14T13:13:13.336Z,7.40
2022-11-14T13:14:18.500Z,7.31
2022-11-14T13:15:30.130Z,7.31
2022-11-14T13:16:32.547Z,7.36
2022-11-14T13:17:35.309Z,7.33
2022-11-14T13:18:56.624Z,7.34
2022-11-14T13:19:59.522Z,7.33
2022-11-14T13:21:05.099Z,7.26
2022-11-14T13:22:17.799Z,7.25
2022-11-14T13:23:30.312Z,7.23
2022-11-14T13:25:02.230Z,7.22
2022-11-14T13:26:14.309Z,7.13
2022-11-14T13:28:00.137Z,7.16
2022-11-14T13:28:46.951Z,6.91
2022-11-14T13:29:49.188Z,6.82
2022-11-14T13:31:17.807Z,6.82
2022-11-14T13:32:43.376Z,6.84
2022-11-14T13:33:50.322Z,6.80
2022-11-14T13:36:28.905Z,6.89
2022-11-14T13:37:44.259Z,6.78
2022-11-14T13:39:05.339Z,6.91
2022-11-14T13:40:28.734Z,6.81
2022-11-14T13:41:47.473Z,6.67
2022-11-14T13:42:51.810Z,6.64
2022-11-14T13:44:12.904Z,6.64
2022-11-14T13:45:30.576Z,6.61
2022-11-14T13:46:45.940Z,6.63
2022-11-14T13:49:14.204Z,6.64
2022-11-14T13:50:20.257Z,6.59
2022-11-14T13:51:42.852Z,6.64
2022-11-14T13:52:33.938Z,6.53
2022-11-14T13:53:39.598Z,6.43
2022-11-14T13:54:47.549Z,6.43
2022-11-14T13:56:05.657Z,6.47
2022-11-14T13:57:29.743Z,6.45
2022-11-14T13:58:47.882Z,6.37
2022-11-14T13:59:53.560Z,6.35
2022-11-14T14:01:17.335Z,6.35
2022-11-14T14:02:23.148Z,6.35
2022-11-14T14:03:34.818Z,6.35
2022-11-14T14:05:06.739Z,6.27
2022-11-14T14:06:27.948Z,6.34
2022-11-14T14:07:46.545Z,6.26
2022-11-14T14:09:16.768Z,6.24
2022-11-14T14:10:31.615Z,6.24
2022-11-14T14:11:55.490Z,6.02
2022-11-14T14:14:20.969Z,6.14
2022-11-14T14:15:35.739Z,5.93
2022-11-14T14:16:58.345Z,5.96
2022-11-14T14:18:09.534Z,5.87
2022-11-14T14:19:39.515Z,5.73
2022-11-14T14:20:46.354Z,5.88
2022-11-14T14:23:30.176Z,5.83
2022-11-14T14:24:59.965Z,5.69
2022-11-14T14:26:05.729Z,5.64
2022-11-14T14:27:26.235Z,5.62
2022-11-14T14:28:50.751Z,5.66
2022-11-14T14:30:14.749Z,5.74
2022-11-14T14:31:19.383Z,5.78
2022-11-14T14:32:21.439Z,5.64
2022-11-14T14:33:23.453Z,5.69
2022-11-14T14:34:31.715Z,5.70
2022-11-14T14:35:40.383Z,5.72
2022-11-14T14:36:44.020Z,5.66
2022-11-14T14:37:50.896Z,5.61
2022-11-14T14:39:15.228Z,5.47
2022-11-14T14:40:30.232Z,5.36
2022-11-14T14:41:34.029Z,5.31
2022-11-14T14:42:39.341Z,5.20
2022-11-14T14:43:44.624Z,5.21
2022-11-14T14:44:47.906Z,5.26
2022-11-14T14:45:52.605Z,5.10
2022-11-14T14:46:55.240Z,5.11
2022-11-14T14:48:12.573Z,5.19
2022-11-14T14:49:24.099Z,5.08
2022-11-14T14:51:45.501Z,4.98
2022-11-14T14:52:59.819Z,4.86
2022-11-14T14:54:03.237Z,4.90
2022-11-14T14:55:09.305Z,4.85
2022-11-14T14:56:21.348Z,4.89